Time;durP1;ratioP1;P1;durP2;ratioP2;P2;SDS_P1;SDS_P2;PMS_P1;PMS_P2;Temp;Humidity;BMP_temperature;BMP_pressure;BME280_temperature;BME280_humidity;BME280_pressure;Samples;Min_cycle;Max_cycle;Signal;HPM_P1;HPM_P2
2022/06/17 00:09:21;;;;;;;0.20;0.00;;;28.40;99.90;;;;;;21230840;28;20223;-73
2022/06/17 00:19:26;;;;;;;0.20;0.00;;;29.30;99.90;;;;;;21229581;28;20215;-75
2022/06/17 00:29:31;;;;;;;0.20;0.00;;;29.40;99.90;;;;;;21229480;28;20227;-74
2022/06/17 00:39:36;;;;;;;0.20;0.10;;;29.30;99.90;;;;;;21224980;28;20751;-73
2022/06/17 00:49:48;;;;;;;0.20;0.00;;;28.70;99.90;;;;;;21227615;28;20708;-75
2022/06/17 01:00:15;;;;;;;0.20;0.10;;;28.80;99.90;;;;;;21227083;28;20289;-73
2022/06/17 01:10:20;;;;;;;0.20;0.00;;;29.80;99.90;;;;;;21224493;28;20227;-72
2022/06/17 01:20:27;;;;;;;0.20;0.10;;;30.20;99.90;;;;;;21225128;28;20246;-73
2022/06/17 01:30:35;;;;;;;0.20;0.00;;;30.10;99.90;;;;;;21226248;28;20234;-74
2022/06/17 01:40:39;;;;;;;0.20;0.00;;;29.90;99.90;;;;;;21145863;28;20228;-74
2022/06/17 01:50:46;;;;;;;0.20;0.10;;;29.90;99.90;;;;;;21140398;28;20284;-74
2022/06/17 02:00:49;;;;;;;0.20;0.00;;;29.40;99.90;;;;;;21145723;28;20210;-73
2022/06/17 02:10:55;;;;;;;0.20;0.10;;;28.70;99.90;;;;;;21155384;28;20222;-73
2022/06/17 02:21:03;;;;;;;0.20;0.00;;;28.40;99.90;;;;;;21153540;28;20241;-73
2022/06/17 02:31:09;;;;;;;0.20;0.00;;;27.50;99.90;;;;;;21152168;28;20738;-74
2022/06/17 02:41:17;;;;;;;0.20;0.10;;;27.00;99.90;;;;;;21152372;28;20260;-73
2022/06/17 02:51:24;;;;;;;0.20;0.00;;;26.70;99.90;;;;;;21152990;28;20246;-72
2022/06/17 03:01:28;;;;;;;0.20;0.00;;;26.40;99.90;;;;;;21150995;28;20248;-73
2022/06/17 03:11:34;;;;;;;0.20;0.00;;;26.50;99.90;;;;;;21150191;28;20240;-73
2022/06/17 03:21:37;;;;;;;0.20;0.00;;;26.40;99.90;;;;;;21149280;28;20236;-73
2022/06/17 03:31:47;;;;;;;0.20;0.00;;;25.60;99.90;;;;;;21149046;28;20227;-72
2022/06/17 03:41:56;;;;;;;0.20;0.00;;;25.40;99.90;;;;;;21146765;28;20192;-72
2022/06/17 03:52:07;;;;;;;0.20;0.00;;;25.40;99.90;;;;;;21147479;28;20317;-72
2022/06/17 04:02:15;;;;;;;0.20;0.00;;;25.60;99.90;;;;;;21146354;28;20254;-71
2022/06/17 04:12:29;;;;;;;0.20;0.00;;;25.90;99.90;;;;;;21143162;28;20232;-71
2022/06/17 04:22:35;;;;;;;0.20;0.00;;;26.10;99.90;;;;;;21142071;28;20892;-71
2022/06/17 04:32:40;;;;;;;0.20;0.00;;;26.80;99.90;;;;;;21143602;28;20443;-72
2022/06/17 04:42:46;;;;;;;0.20;0.10;;;27.20;99.90;;;;;;21138739;28;20204;-71
2022/06/17 04:52:51;;;;;;;0.20;0.10;;;27.20;99.90;;;;;;21141422;28;20484;-72
2022/06/17 05:02:55;;;;;;;0.20;0.05;;;27.70;99.90;;;;;;21141219;28;20283;-72
2022/06/17 05:13:05;;;;;;;0.20;0.05;;;27.70;99.90;;;;;;21139844;28;20239;-72
2022/06/17 05:23:13;;;;;;;0.20;0.00;;;27.50;99.90;;;;;;21138510;28;20224;-71
2022/06/17 05:33:19;;;;;;;0.20;0.00;;;27.20;99.90;;;;;;21139715;28;20227;-71
2022/06/17 05:43:23;;;;;;;0.20;0.00;;;27.00;99.90;;;;;;21155190;28;20199;-72
2022/06/17 05:53:28;;;;;;;0.20;0.00;;;26.90;99.90;;;;;;21150091;28;20224;-71
2022/06/17 06:03:32;;;;;;;0.20;0.08;;;27.20;99.90;;;;;;21150558;28;20626;-70
2022/06/17 06:13:38;;;;;;;0.20;0.00;;;27.80;99.90;;;;;;21151145;28;20219;-70
2022/06/17 06:23:42;;;;;;;0.20;0.00;;;27.80;99.90;;;;;;21150524;28;20232;-70
2022/06/17 06:33:47;;;;;;;0.20;0.00;;;28.30;99.90;;;;;;21129750;28;20212;-72
2022/06/17 06:43:52;;;;;;;0.20;0.00;;;28.70;99.90;;;;;;21146958;28;20272;-70
2022/06/17 06:53:58;;;;;;;0.20;0.00;;;28.30;99.90;;;;;;21144719;28;20285;-71
2022/06/17 07:04:02;;;;;;;0.20;0.00;;;28.20;99.90;;;;;;21144753;28;20247;-70
2022/06/17 07:14:07;;;;;;;0.20;0.00;;;28.70;99.90;;;;;;21144139;28;20247;-69
2022/06/17 07:24:11;;;;;;;0.20;0.10;;;29.00;99.90;;;;;;21141716;28;20238;-70
2022/06/17 07:34:16;;;;;;;0.20;0.00;;;28.70;99.90;;;;;;21144462;28;20250;-70
2022/06/17 07:44:20;;;;;;;0.20;0.00;;;28.90;99.90;;;;;;21142902;28;20223;-71
2022/06/17 07:54:25;;;;;;;0.20;0.00;;;29.20;99.90;;;;;;21142162;28;20235;-70
2022/06/17 08:04:30;;;;;;;0.20;0.00;;;29.30;99.90;;;;;;21141268;28;20220;-70
2022/06/17 08:14:37;;;;;;;0.20;0.00;;;28.90;99.90;;;;;;21141789;28;20220;-70
2022/06/17 08:24:41;;;;;;;0.20;0.00;;;29.20;99.90;;;;;;21142763;28;20251;-70
2022/06/17 08:34:52;;;;;;;0.20;0.00;;;29.80;99.90;;;;;;21140292;28;20241;-71
2022/06/17 08:45:04;;;;;;;0.20;0.00;;;29.80;99.90;;;;;;21139191;28;20263;-70
2022/06/17 08:55:20;;;;;;;0.20;0.10;;;29.80;99.90;;;;;;21134591;28;20231;-71
2022/06/17 09:05:38;;;;;;;0.20;0.00;;;29.80;99.90;;;;;;21135878;28;20242;-70
2022/06/17 09:15:47;;;;;;;0.20;0.10;;;30.30;99.90;;;;;;21132925;28;20223;-72
2022/06/17 09:25:51;;;;;;;0.20;0.00;;;30.60;99.90;;;;;;21132867;28;20214;-71
2022/06/17 09:36:06;;;;;;;0.20;0.00;;;30.50;99.90;;;;;;21128289;28;20228;-70
2022/06/17 09:46:16;;;;;;;0.20;0.00;;;30.70;99.90;;;;;;21124740;28;20296;-71
2022/06/17 09:56:30;;;;;;;0.20;0.00;;;30.80;99.90;;;;;;21122907;28;20225;-72
2022/06/17 10:06:42;;;;;;;0.20;0.05;;;30.70;99.90;;;;;;21125046;28;20254;-73
2022/06/17 10:27:28;;;;;;;0.20;0.00;;;31.30;99.90;;;;;;21137539;28;20246;-74
2022/06/17 10:37:53;;;;;;;0.20;0.10;;;31.50;99.90;;;;;;21138317;28;20210;-72
2022/06/17 10:48:03;;;;;;;0.20;0.00;;;31.60;99.90;;;;;;21135955;28;20250;-71
2022/06/17 10:58:13;;;;;;;0.20;0.00;;;32.30;99.90;;;;;;21135809;28;20200;-70
2022/06/17 11:08:22;;;;;;;0.20;0.00;;;32.90;99.90;;;;;;21136977;28;20224;-71
2022/06/17 11:18:31;;;;;;;0.20;0.00;;;32.90;99.90;;;;;;21133583;28;20235;-71
2022/06/17 11:28:37;;;;;;;0.20;0.00;;;33.40;99.90;;;;;;21133913;28;20246;-72
2022/06/17 11:38:43;;;;;;;0.20;0.00;;;34.50;99.90;;;;;;21148773;28;20332;-72
2022/06/17 11:49:00;;;;;;;0.20;0.00;;;35.00;99.90;;;;;;21134105;28;20227;-73
2022/06/17 11:59:11;;;;;;;0.20;0.00;;;35.00;99.90;;;;;;21132723;28;20963;-72
2022/06/17 12:09:28;;;;;;;0.20;0.00;;;35.10;99.90;;;;;;21130827;28;20282;-73
2022/06/17 12:19:33;;;;;;;0.20;0.00;;;35.60;99.90;;;;;;21132413;28;20236;-73
2022/06/17 12:29:44;;;;;;;0.20;0.00;;;35.80;99.90;;;;;;21112666;28;20231;-72
2022/06/17 12:39:57;;;;;;;0.20;0.00;;;35.60;99.90;;;;;;21130184;28;20221;-72
2022/06/17 13:00:38;;;;;;;0.20;0.00;;;36.50;99.90;;;;;;21128651;28;20199;-71
2022/06/17 13:10:49;;;;;;;0.20;0.00;;;36.70;99.90;;;;;;21128349;28;20231;-71
2022/06/17 13:21:01;;;;;;;0.20;0.00;;;37.10;99.90;;;;;;21143174;28;20239;-71
2022/06/17 13:31:10;;;;;;;0.20;0.00;;;36.90;99.90;;;;;;21124264;28;20238;-69
2022/06/17 13:41:20;;;;;;;0.20;0.00;;;36.90;99.90;;;;;;21107516;28;20194;-72
2022/06/17 13:51:34;;;;;;;0.20;0.00;;;37.00;99.90;;;;;;21122521;28;20224;-72
2022/06/17 14:01:48;;;;;;;0.20;0.00;;;36.00;99.90;;;;;;21134544;28;20275;-71
2022/06/17 14:11:53;;;;;;;0.20;0.00;;;36.20;99.90;;;;;;21135196;28;20243;-73
2022/06/17 14:21:59;;;;;;;0.20;0.00;;;36.40;99.90;;;;;;21134580;28;20271;-70
2022/06/17 14:32:15;;;;;;;0.20;0.00;;;36.80;99.90;;;;;;21178503;28;20249;-71
2022/06/17 14:42:48;;;;;;;0.20;0.00;;;37.00;99.90;;;;;;21218049;28;20255;-71
2022/06/17 14:53:21;;;;;;;0.20;0.00;;;37.80;99.90;;;;;;21204493;27;20286;-73
2022/06/17 15:03:35;;;;;;;0.20;0.00;;;36.90;99.90;;;;;;21208103;28;20219;-70
2022/06/17 15:24:15;;;;;;;0.20;0.00;;;37.20;99.90;;;;;;21215711;28;20279;-71
2022/06/17 15:34:25;;;;;;;0.20;0.00;;;37.10;99.90;;;;;;21212386;28;20282;-71
2022/06/17 15:44:33;;;;;;;0.20;0.00;;;36.90;99.90;;;;;;21212460;28;20182;-71
2022/06/17 15:54:36;;;;;;;0.20;0.00;;;36.70;99.90;;;;;;21211225;28;20223;-71
2022/06/17 16:04:42;;;;;;;0.20;0.00;;;36.50;99.90;;;;;;21216420;28;20242;-70
2022/06/17 16:14:55;;;;;;;0.20;0.00;;;36.30;99.90;;;;;;21219477;28;20219;-70
2022/06/17 16:25:01;;;;;;;0.20;0.00;;;36.70;99.90;;;;;;21218046;28;20237;-70
2022/06/17 16:35:21;;;;;;;0.20;0.00;;;35.70;99.90;;;;;;21218098;28;20214;-72
2022/06/17 16:45:28;;;;;;;0.20;0.00;;;35.90;99.90;;;;;;21216501;28;20206;-71
2022/06/17 16:55:34;;;;;;;0.20;0.00;;;35.70;99.90;;;;;;21221924;28;20230;-71
2022/06/17 17:05:39;;;;;;;0.20;0.00;;;35.60;99.90;;;;;;21218856;28;20226;-70
2022/06/17 17:15:43;;;;;;;0.20;0.00;;;35.10;99.90;;;;;;21216947;28;20291;-72
2022/06/17 17:25:52;;;;;;;0.20;0.00;;;34.00;99.90;;;;;;21217359;28;20191;-69
2022/06/17 17:35:56;;;;;;;0.20;0.00;;;33.40;99.90;;;;;;21217942;28;20215;-71
2022/06/17 17:46:01;;;;;;;0.20;0.00;;;32.30;99.90;;;;;;21214780;28;20289;-71
2022/06/17 17:56:06;;;;;;;0.20;0.10;;;31.50;99.90;;;;;;21211506;28;20316;-70
2022/06/17 18:06:15;;;;;;;0.20;0.00;;;31.50;99.90;;;;;;21217916;28;20295;-70
2022/06/17 18:16:20;;;;;;;0.20;0.00;;;31.60;99.90;;;;;;21215144;28;20227;-72
2022/06/17 18:26:28;;;;;;;0.20;0.10;;;31.60;99.90;;;;;;21215441;28;20207;-71
2022/06/17 18:36:32;;;;;;;0.20;0.00;;;31.40;99.90;;;;;;21213279;28;20311;-70
2022/06/17 18:46:39;;;;;;;0.20;0.00;;;31.50;99.90;;;;;;21226041;28;20215;-71
2022/06/17 18:56:43;;;;;;;0.20;0.00;;;31.10;99.90;;;;;;21231580;28;20234;-71
2022/06/17 19:06:51;;;;;;;0.20;0.00;;;31.30;99.90;;;;;;21226655;28;20291;-71
2022/06/17 19:27:21;;;;;;;0.20;0.00;;;30.70;99.90;;;;;;21228408;28;20222;-71
2022/06/17 19:37:25;;;;;;;0.20;0.00;;;30.40;99.90;;;;;;21227604;28;20192;-70
2022/06/17 19:47:34;;;;;;;0.20;0.00;;;30.20;99.90;;;;;;21226281;28;20199;-72
2022/06/17 19:57:38;;;;;;;0.20;0.00;;;29.80;99.90;;;;;;21225901;28;20226;-71
2022/06/17 20:07:43;;;;;;;0.20;0.00;;;29.40;99.90;;;;;;21223865;28;20223;-71
2022/06/17 20:17:47;;;;;;;0.20;0.10;;;29.10;99.90;;;;;;21225152;27;20215;-69
2022/06/17 20:27:52;;;;;;;0.20;0.00;;;28.80;99.90;;;;;;21223521;28;20246;-71
2022/06/17 20:37:58;;;;;;;0.20;0.00;;;28.60;99.90;;;;;;21205791;28;20266;-71
2022/06/17 20:58:27;;;;;;;0.20;0.10;;;28.40;99.90;;;;;;21220313;28;20211;-72
2022/06/17 21:08:36;;;;;;;0.20;0.03;;;28.20;99.90;;;;;;21220086;28;20243;-73
2022/06/17 21:18:41;;;;;;;0.20;0.00;;;27.90;99.90;;;;;;21219876;28;20248;-71
2022/06/17 21:28:46;;;;;;;0.20;0.00;;;27.70;99.90;;;;;;21221231;28;20291;-71
2022/06/17 21:38:54;;;;;;;0.20;0.00;;;27.60;99.90;;;;;;21221950;28;20218;-72
2022/06/17 21:48:59;;;;;;;0.20;0.00;;;27.60;99.90;;;;;;21220873;28;20223;-71
2022/06/17 21:59:06;;;;;;;0.20;0.00;;;27.70;99.90;;;;;;21220480;28;20210;-72
2022/06/17 22:09:16;;;;;;;0.20;0.00;;;27.30;99.90;;;;;;21222724;28;20299;-72
2022/06/17 22:19:26;;;;;;;0.20;0.10;;;27.50;99.90;;;;;;21230371;28;20245;-72
2022/06/17 22:29:35;;;;;;;0.20;0.10;;;27.30;99.90;;;;;;21236178;28;20275;-72
2022/06/17 22:39:39;;;;;;;0.20;0.10;;;27.20;99.90;;;;;;21236831;28;20319;-71
2022/06/17 22:49:44;;;;;;;0.20;0.00;;;27.20;99.90;;;;;;21235321;28;20262;-71
2022/06/17 22:59:48;;;;;;;0.20;0.00;;;27.10;99.90;;;;;;21234641;28;20191;-71
2022/06/17 23:09:53;;;;;;;0.20;0.00;;;27.20;99.90;;;;;;21233803;28;20251;-71
2022/06/17 23:20:03;;;;;;;0.20;0.00;;;27.20;99.90;;;;;;21233763;28;20257;-72
2022/06/17 23:30:10;;;;;;;0.20;0.00;;;27.10;99.90;;;;;;21230305;28;20307;-72
2022/06/17 23:40:15;;;;;;;0.20;0.10;;;27.10;99.90;;;;;;21232113;28;20198;-72
2022/06/17 23:50:26;;;;;;;0.20;0.00;;;26.90;99.90;;;;;;21230610;28;20278;-72
